Time;durP1;ratioP1;P1;durP2;ratioP2;P2;SDS_P1;SDS_P2;PMS_P1;PMS_P2;Temp;Humidity;BMP_temperature;BMP_pressure;BME280_temperature;BME280_humidity;BME280_pressure;Samples;Min_cycle;Max_cycle;Signal;HPM_P1;HPM_P2
2021/12/25 00:01:31;;;;;;;14.00;6.05;;;;;;;;;;5054193;28;20052;-89
2021/12/25 00:03:57;;;;;;;9.23;4.75;;;;;;;;;;5069360;28;20078;-91
2021/12/25 00:06:24;;;;;;;13.23;6.30;;;;;;;;;;5072031;28;20086;-91
2021/12/25 00:08:51;;;;;;;9.52;5.32;;;;;;;;;;5072347;28;20618;-91
2021/12/25 00:11:17;;;;;;;12.23;7.37;;;;;;;;;;5071799;28;20037;-91
2021/12/25 00:13:43;;;;;;;15.25;7.60;;;;;;;;;;5046560;28;20275;-90
2021/12/25 00:16:09;;;;;;;22.58;9.98;;;6.60;93.20;;;;;;5049446;28;20397;-90
2021/12/25 00:18:36;;;;;;;16.23;7.68;;;;;;;;;;5085599;28;20036;-92
2021/12/25 00:21:02;;;;;;;12.05;5.70;;;6.60;92.70;;;;;;5054874;28;20025;-90
2021/12/25 00:23:28;;;;;;;12.07;6.28;;;;;;;;;;5053361;28;20041;-92
2021/12/25 00:26:00;;;;;;;15.13;6.80;;;;;;;;;;5065263;28;20056;-92
2021/12/25 00:36:02;;;;;;;20.05;9.60;;;;;;;;;;5059250;28;20489;-91
2021/12/25 00:38:28;;;;;;;14.57;8.50;;;;;;;;;;5068098;28;20036;-90
2021/12/25 00:40:54;;;;;;;13.77;7.55;;;;;;;;;;5071578;28;20025;-91
2021/12/25 00:43:20;;;;;;;7.72;4.18;;;;;;;;;;5063374;28;20036;-91
2021/12/25 00:45:46;;;;;;;8.32;3.83;;;;;;;;;;5056815;28;20030;-90
2021/12/25 00:48:12;;;;;;;6.68;3.85;;;;;;;;;;5072130;28;20028;-91
2021/12/25 00:50:38;;;;;;;9.05;5.20;;;;;;;;;;5034911;28;20032;-90
2021/12/25 00:53:04;;;;;;;23.65;5.65;;;;;;;;;;5049034;28;20504;-91
2021/12/25 00:55:30;;;;;;;12.65;5.65;;;;;;;;;;5070193;28;20104;-92
2021/12/25 00:57:56;;;;;;;9.10;5.07;;;;;;;;;;5063570;28;20024;-90
2021/12/25 01:00:22;;;;;;;5.78;3.92;;;;;;;;;;5070987;28;20028;-90
2021/12/25 01:02:48;;;;;;;11.27;5.22;;;;;;;;;;5075076;28;20028;-90
2021/12/25 01:05:16;;;;;;;14.32;6.82;;;;;;;;;;5073442;28;20542;-91
2021/12/25 01:07:42;;;;;;;8.10;4.32;;;;;;;;;;5057384;28;20089;-90
2021/12/25 01:10:12;;;;;;;6.80;6.05;;;;;;;;;;5050480;28;20186;-91
2021/12/25 01:15:21;;;;;;;12.45;6.85;;;6.50;92.30;;;;;;5055787;28;20112;-91
2021/12/25 01:41:41;;;;;;;19.65;7.72;;;;;;;;;;5030259;28;20053;-90
2021/12/25 01:49:32;;;;;;;10.88;6.10;;;;;;;;;;5032243;28;20045;-90
2021/12/25 01:51:58;;;;;;;18.73;6.70;;;;;;;;;;5016924;28;20038;-91
2021/12/25 01:54:24;;;;;;;11.32;5.53;;;;;;;;;;5015734;28;20022;-90
2021/12/25 01:56:50;;;;;;;7.43;4.15;;;;;;;;;;5032619;28;20037;-91
2021/12/25 01:59:17;;;;;;;13.32;5.35;;;;;;;;;;5035773;28;20672;-90
2021/12/25 02:01:43;;;;;;;31.13;7.65;;;;;;;;;;5026184;28;20037;-90
2021/12/25 02:04:09;;;;;;;23.77;10.02;;;;;;;;;;5036924;28;20040;-90
2021/12/25 02:06:35;;;;;;;19.52;8.57;;;;;;;;;;5053492;28;20060;-91
2021/12/25 02:09:01;;;;;;;23.67;7.72;;;;;;;;;;5067835;28;20453;-91
2021/12/25 02:11:27;;;;;;;28.38;6.93;;;;;;;;;;5074021;28;20052;-90
2021/12/25 02:13:55;;;;;;;13.52;8.98;;;;;;;;;;5052883;28;20059;-90
2021/12/25 02:16:24;;;;;;;17.73;6.47;;;;;;;;;;5077349;28;20029;-91
2021/12/25 02:19:11;;;;;;;14.45;7.13;;;;;;;;;;5070311;28;20025;-89
2021/12/25 02:21:39;;;;;;;21.83;7.60;;;;;;;;;;5056306;28;20528;-90
2021/12/25 02:24:08;;;;;;;12.82;6.80;;;6.20;92.10;;;;;;5055928;28;20055;-91
2021/12/25 02:26:34;;;;;;;8.23;5.85;;;;;;;;;;5073515;28;21497;-91
2021/12/25 02:29:00;;;;;;;8.10;4.65;;;;;;;;;;5068818;28;20036;-91
2021/12/25 02:31:26;;;;;;;17.77;7.13;;;;;;;;;;5073270;28;20401;-91
2021/12/25 02:33:52;;;;;;;10.65;4.82;;;;;;;;;;5066801;28;20068;-90
2021/12/25 02:36:19;;;;;;;14.15;6.40;;;;;;;;;;5050293;28;20013;-91
2021/12/25 02:38:47;;;;;;;10.77;6.25;;;5.90;92.80;;;;;;5055756;28;20033;-90
2021/12/25 02:41:13;;;;;;;9.32;6.47;;;;;;;;;;5073130;28;20021;-90
2021/12/25 02:43:42;;;;;;;9.93;6.28;;;6.10;92.70;;;;;;5072739;28;20024;-91
2021/12/25 02:46:08;;;;;;;11.35;5.28;;;;;;;;;;5073403;28;20020;-91
2021/12/25 02:48:40;;;;;;;14.27;5.78;;;;;;;;;;5070718;28;20040;-90
2021/12/25 02:51:07;;;;;;;9.55;5.75;;;;;;;;;;5073658;28;20039;-91
2021/12/25 02:53:33;;;;;;;11.97;5.67;;;;;;;;;;5053612;28;20033;-89
2021/12/25 02:55:59;;;;;;;12.48;6.45;;;;;;;;;;5062397;28;20024;-90
2021/12/25 02:58:25;;;;;;;12.63;5.57;;;;;;;;;;5072464;28;20036;-92
2021/12/25 03:00:53;;;;;;;9.80;5.65;;;;;;;;;;5067804;28;20108;-91
2021/12/25 03:03:20;;;;;;;12.15;4.38;;;;;;;;;;5036759;28;20036;-90
2021/12/25 03:05:46;;;;;;;9.13;5.90;;;;;;;;;;5066154;28;20027;-91
2021/12/25 03:08:12;;;;;;;13.50;7.15;;;;;;;;;;5072221;28;20039;-90
2021/12/25 03:10:39;;;;;;;12.68;5.32;;;;;;;;;;5052122;28;20083;-90
2021/12/25 03:15:45;;;;;;;9.25;5.82;;;;;;;;;;5056780;28;20392;-89
2021/12/25 03:18:12;;;;;;;13.57;4.78;;;;;;;;;;5055712;28;20031;-90
2021/12/25 03:20:44;;;;;;;8.35;5.05;;;;;;;;;;5035691;28;20033;-90
2021/12/25 03:23:10;;;;;;;10.38;4.75;;;;;;;;;;5053466;28;20029;-92
2021/12/25 03:25:36;;;;;;;15.20;4.47;;;;;;;;;;5071489;28;20055;-92
2021/12/25 03:28:02;;;;;;;12.00;5.35;;;;;;;;;;5055231;28;20043;-90
2021/12/25 03:30:28;;;;;;;12.32;5.85;;;;;;;;;;5054960;28;20013;-91
2021/12/25 03:32:55;;;;;;;11.80;5.88;;;;;;;;;;5055196;28;20033;-88
2021/12/25 03:35:21;;;;;;;8.30;4.40;;;;;;;;;;5082199;28;20052;-91
2021/12/25 03:37:47;;;;;;;8.13;5.60;;;;;;;;;;5079430;28;20561;-89
2021/12/25 03:40:13;;;;;;;9.52;5.82;;;;;;;;;;5046531;28;20021;-91
2021/12/25 03:42:39;;;;;;;14.27;6.43;;;;;;;;;;5045184;28;20075;-91
2021/12/25 03:45:06;;;;;;;13.75;5.38;;;;;;;;;;5071902;28;20043;-91
2021/12/25 03:47:36;;;;;;;7.50;4.72;;;;;;;;;;5072406;28;20024;-92
2021/12/25 03:58:31;;;;;;;10.55;5.68;;;;;;;;;;5013026;28;20041;-90
2021/12/25 04:01:04;;;;;;;8.40;3.72;;;;;;;;;;5008734;28;20573;-91
2021/12/25 04:03:49;;;;;;;6.35;3.88;;;;;;;;;;5016184;28;20038;-89
2021/12/25 04:06:15;;;;;;;8.57;5.13;;;6.30;99.90;;;;;;5014757;28;20065;-91
2021/12/25 04:08:44;;;;;;;10.52;4.43;;;;;;;;;;5000398;28;20065;-90
2021/12/25 04:11:25;;;;;;;12.18;6.40;;;;;;;;;;5014534;28;20080;-91
2021/12/25 04:13:51;;;;;;;4.78;3.67;;;;;;;;;;5016524;28;21310;-90
2021/12/25 04:16:17;;;;;;;11.85;5.57;;;;;;;;;;5005254;28;20029;-90
2021/12/25 04:18:43;;;;;;;16.75;5.78;;;;;;;;;;5016106;28;20038;-91
2021/12/25 04:21:09;;;;;;;10.90;5.88;;;;;;;;;;5014593;28;20034;-90
2021/12/25 04:23:39;;;;;;;6.00;3.88;;;;;;;;;;4987353;28;20049;-91
2021/12/25 04:26:05;;;;;;;10.07;4.32;;;;;;;;;;5013148;28;20519;-90
2021/12/25 05:04:12;;;;;;;5.30;4.10;;;;;;;;;;5019045;28;20064;-91
2021/12/25 05:06:38;;;;;;;7.38;4.45;;;;;;;;;;5026815;28;20046;-91
2021/12/25 05:09:04;;;;;;;10.02;4.20;;;;;;;;;;4977927;28;20089;-90
2021/12/25 05:11:30;;;;;;;9.43;3.95;;;;;;;;;;5012302;28;20068;-91
2021/12/25 05:13:56;;;;;;;7.55;4.05;;;;;;;;;;5010790;28;20025;-91
2021/12/25 05:16:22;;;;;;;8.13;3.45;;;;;;;;;;5016706;28;20041;-90
2021/12/25 05:18:51;;;;;;;8.88;3.85;;;;;;;;;;5013624;28;20030;-90
2021/12/25 05:21:18;;;;;;;7.28;3.58;;;;;;;;;;5012835;28;20033;-92
2021/12/25 05:23:44;;;;;;;9.25;4.30;;;;;;;;;;4994670;28;20080;-91
2021/12/25 05:26:10;;;;;;;7.38;4.50;;;;;;;;;;5015411;28;20228;-89
2021/12/25 05:28:45;;;;;;;11.98;4.25;;;;;;;;;;5033793;28;20029;-90
2021/12/25 05:31:13;;;;;;;12.13;4.65;;;;;;;;;;5075451;28;20031;-90
2021/12/25 05:33:40;;;;;;;11.18;5.43;;;6.10;91.20;;;;;;5070634;28;20029;-90
2021/12/25 05:36:06;;;;;;;7.38;5.28;;;;;;;;;;5069897;28;20025;-90
2021/12/25 05:38:33;;;;;;;9.63;4.35;;;;;;;;;;5057241;28;20036;-91
2021/12/25 05:40:59;;;;;;;;;;;5.90;91.70;;;;;;5071173;28;20021;-90
2021/12/25 05:43:25;;;;;;;7.68;5.03;;;;;;;;;;5055697;28;19915;-90
2021/12/25 05:45:51;;;;;;;10.30;5.15;;;;;;;;;;5038237;28;20079;-91
2021/12/25 05:48:17;;;;;;;13.43;5.80;;;;;;;;;;5055602;28;20024;-90
2021/12/25 05:50:44;;;;;;;11.20;6.35;;;;;;;;;;5053776;28;20031;-90
2021/12/25 05:53:10;;;;;;;7.28;4.18;;;;;;;;;;5074064;28;20029;-89
2021/12/25 05:55:36;;;;;;;10.10;4.80;;;;;;;;;;5073486;28;20035;-91
2021/12/25 05:58:03;;;;;;;5.47;3.70;;;;;;;;;;5056965;28;20031;-92
2021/12/25 06:00:30;;;;;;;10.52;4.75;;;;;;;;;;5071991;28;20492;-90
2021/12/25 06:02:56;;;;;;;11.38;4.38;;;;;;;;;;5067186;28;20120;-91
2021/12/25 06:05:23;;;;;;;7.72;4.63;;;;;;;;;;5056414;28;20031;-90
2021/12/25 06:07:49;;;;;;;9.55;4.30;;;;;;;;;;5056270;28;20074;-90
2021/12/25 06:10:15;;;;;;;7.22;4.68;;;;;;;;;;5065430;28;20031;-91
2021/12/25 06:12:42;;;;;;;8.90;4.07;;;;;;;;;;5054301;28;20075;-91
2021/12/25 06:15:10;;;;;;;9.70;5.25;;;5.90;93.10;;;;;;5054836;28;20029;-91
2021/12/25 06:17:36;;;;;;;9.10;5.07;;;;;;;;;;5061552;28;20031;-91
2021/12/25 06:20:04;;;;;;;8.65;3.80;;;6.00;92.90;;;;;;5056113;28;20052;-92
2021/12/25 06:22:31;;;;;;;7.10;4.00;;;;;;;;;;5055963;28;20025;-91
2021/12/25 06:24:57;;;;;;;4.97;3.78;;;;;;;;;;5073836;28;20129;-91
2021/12/25 06:27:23;;;;;;;5.10;3.33;;;;;;;;;;5072960;28;20067;-90
2021/12/25 06:29:49;;;;;;;6.95;3.17;;;;;;;;;;5073831;28;20048;-90
2021/12/25 06:32:15;;;;;;;6.55;4.07;;;;;;;;;;5056067;28;20052;-90
2021/12/25 06:34:41;;;;;;;5.57;3.47;;;;;;;;;;5074200;28;20027;-90
2021/12/25 06:37:07;;;;;;;4.00;3.30;;;;;;;;;;5074100;28;20024;-90
2021/12/25 06:39:33;;;;;;;8.65;3.80;;;;;;;;;;5073652;28;20282;-91
2021/12/25 06:42:00;;;;;;;7.88;4.18;;;;;;;;;;5056074;28;20184;-91
2021/12/25 06:44:27;;;;;;;4.55;3.63;;;;;;;;;;5073469;28;20021;-91
2021/12/25 06:46:53;;;;;;;6.50;3.47;;;;;;;;;;5055679;28;20037;-90
2021/12/25 06:49:19;;;;;;;8.52;4.35;;;;;;;;;;5071165;28;20055;-90
2021/12/25 06:51:45;;;;;;;7.55;3.25;;;;;;;;;;5055378;28;20031;-91
2021/12/25 06:54:11;;;;;;;10.95;4.70;;;;;;;;;;5055675;28;20112;-91
2021/12/25 06:56:37;;;;;;;6.55;3.58;;;;;;;;;;5071862;28;20023;-90
2021/12/25 06:59:03;;;;;;;9.55;5.10;;;;;;;;;;5073341;28;20388;-90
2021/12/25 07:01:29;;;;;;;13.20;4.93;;;;;;;;;;5063294;28;20025;-90
2021/12/25 07:03:55;;;;;;;12.65;6.43;;;;;;;;;;5065501;28;20025;-90
2021/12/25 07:06:21;;;;;;;10.40;5.78;;;;;;;;;;5073069;28;20036;-90
2021/12/25 07:08:48;;;;;;;20.38;10.15;;;;;;;;;;5055379;28;20020;-91
2021/12/25 07:11:14;;;;;;;21.77;10.88;;;;;;;;;;5052084;28;20402;-91
2021/12/25 07:13:43;;;;;;;42.13;15.88;;;;;;;;;;5064135;28;20028;-91
2021/12/25 07:16:09;;;;;;;18.90;9.85;;;;;;;;;;5070094;28;20040;-89
2021/12/25 07:18:36;;;;;;;9.23;6.65;;;;;;;;;;5055624;28;20032;-90
2021/12/25 07:21:03;;;;;;;8.13;5.35;;;;;;;;;;5072937;28;20021;-91
2021/12/25 07:23:29;;;;;;;12.63;5.60;;;;;;;;;;5072729;28;20090;-89
2021/12/25 07:25:55;;;;;;;9.43;4.55;;;;;;;;;;5072707;28;20055;-91
2021/12/25 07:28:22;;;;;;;6.35;3.85;;;;;;;;;;5063592;28;20399;-92
2021/12/25 07:30:51;;;;;;;10.93;5.05;;;;;;;;;;5066567;28;20508;-90
2021/12/25 07:33:20;;;;;;;10.15;4.20;;;;;;;;;;5055007;28;20031;-90
2021/12/25 07:35:46;;;;;;;11.63;7.15;;;;;;;;;;5064378;28;20021;-91
2021/12/25 07:38:12;;;;;;;16.75;8.15;;;;;;;;;;5071365;28;20489;-92
2021/12/25 07:40:39;;;;;;;8.55;6.82;;;;;;;;;;5072747;28;20020;-91
2021/12/25 07:43:05;;;;;;;14.43;7.68;;;;;;;;;;5066350;28;20112;-91
2021/12/25 07:45:31;;;;;;;23.95;6.22;;;;;;;;;;5053032;28;20059;-91
2021/12/25 07:48:00;;;;;;;10.73;5.18;;;;;;;;;;5072406;28;20040;-89
2021/12/25 07:50:27;;;;;;;14.60;7.32;;;;;;;;;;5068524;28;20032;-89
2021/12/25 07:52:53;;;;;;;15.30;6.77;;;;;;;;;;5066674;28;20031;-89
2021/12/25 07:55:19;;;;;;;21.70;9.50;;;;;;;;;;5053619;28;20025;-90
2021/12/25 07:57:45;;;;;;;9.98;7.18;;;;;;;;;;5068931;28;20032;-91
2021/12/25 08:00:12;;;;;;;12.07;6.85;;;;;;;;;;5068378;28;20030;-90
2021/12/25 08:02:38;;;;;;;13.45;6.65;;;;;;;;;;5070673;28;20021;-90
2021/12/25 08:05:04;;;;;;;15.45;7.85;;;6.60;92.20;;;;;;5059012;28;20037;-90
2021/12/25 08:07:31;;;;;;;22.92;9.63;;;;;;;;;;5057663;28;20037;-91
2021/12/25 08:10:10;;;;;;;18.58;8.82;;;;;;;;;;5053281;28;20017;-90
2021/12/25 08:12:37;;;;;;;20.67;8.73;;;;;;;;;;5070012;28;20080;-90
2021/12/25 08:15:03;;;;;;;20.52;9.25;;;;;;;;;;5055658;28;20482;-90
2021/12/25 08:17:29;;;;;;;15.88;7.78;;;;;;;;;;5055356;28;20029;-90
2021/12/25 08:19:55;;;;;;;12.73;7.38;;;;;;;;;;5056530;28;20039;-90
2021/12/25 08:22:21;;;;;;;16.63;8.75;;;;;;;;;;5085275;28;20107;-89
2021/12/25 08:24:51;;;;;;;20.13;8.88;;;;;;;;;;5075871;28;20048;-90
2021/12/25 08:27:17;;;;;;;23.40;8.52;;;;;;;;;;5076011;28;20093;-91
2021/12/25 08:29:43;;;;;;;16.40;8.32;;;;;;;;;;5076606;28;20034;-91
2021/12/25 08:32:09;;;;;;;8.57;6.18;;;;;;;;;;5069983;28;20028;-90
2021/12/25 08:34:37;;;;;;;11.20;6.40;;;;;;;;;;5074877;28;20025;-91
2021/12/25 08:37:03;;;;;;;14.43;8.07;;;;;;;;;;5075410;28;20129;-90
2021/12/25 08:39:29;;;;;;;26.25;8.90;;;;;;;;;;5075793;28;20021;-91
2021/12/25 08:42:01;;;;;;;11.10;8.63;;;;;;;;;;5057974;28;20512;-91
2021/12/25 08:44:36;;;;;;;21.52;9.57;;;;;;;;;;5074891;28;20034;-89
2021/12/25 08:47:04;;;;;;;15.48;8.45;;;7.60;92.70;;;;;;5075597;28;20032;-90
2021/12/25 08:49:31;;;;;;;19.60;8.00;;;;;;;;;;5068899;28;20046;-90
2021/12/25 08:51:58;;;;;;;13.98;7.57;;;;;;;;;;5075618;28;20032;-90
2021/12/25 08:54:24;;;;;;;12.38;7.45;;;;;;;;;;5058177;28;20107;-90
2021/12/25 08:56:50;;;;;;;32.33;12.63;;;;;;;;;;5075975;28;20040;-90
2021/12/25 08:59:16;;;;;;;15.90;8.20;;;;;;;;;;5075642;28;20043;-91
2021/12/25 09:01:43;;;;;;;9.55;5.45;;;;;;;;;;5074594;28;20120;-90
2021/12/25 09:04:09;;;;;;;12.10;6.70;;;;;;;;;;5075775;28;20416;-89
2021/12/25 09:06:35;;;;;;;9.00;6.88;;;;;;;;;;5054918;28;20032;-89
2021/12/25 09:09:01;;;;;;;8.35;4.22;;;;;;;;;;5073076;28;20020;-90
2021/12/25 09:11:27;;;;;;;11.45;6.35;;;;;;;;;;5057956;28;20097;-89
2021/12/25 09:13:53;;;;;;;10.93;5.03;;;;;;;;;;5083695;28;20489;-91
2021/12/25 09:16:19;;;;;;;20.38;9.85;;;;;;;;;;5066593;28;20082;-89
2021/12/25 09:18:46;;;;;;;23.95;10.80;;;;;;;;;;5063580;28;20101;-90
2021/12/25 09:21:13;;;;;;;18.70;8.60;;;;;;;;;;5074870;28;20167;-91
2021/12/25 09:23:39;;;;;;;22.02;11.48;;;;;;;;;;5056138;28;20392;-90
2021/12/25 09:26:05;;;;;;;31.95;12.68;;;;;;;;;;5075182;28;20040;-89
2021/12/25 09:28:31;;;;;;;28.00;12.98;;;;;;;;;;5074648;28;20034;-90
2021/12/25 09:30:57;;;;;;;24.33;10.52;;;;;;;;;;5069176;28;20485;-89
2021/12/25 09:33:23;;;;;;;15.55;9.02;;;;;;;;;;5054775;28;20098;-90
2021/12/25 09:35:49;;;;;;;17.25;10.00;;;;;;;;;;5053658;28;20056;-89
2021/12/25 09:38:15;;;;;;;20.90;10.43;;;;;;;;;;5050059;28;20490;-89
2021/12/25 09:40:41;;;;;;;20.30;8.82;;;;;;;;;;5071831;28;20094;-90
2021/12/25 09:43:07;;;;;;;14.98;9.02;;;;;;;;;;5073384;28;20059;-90
2021/12/25 09:45:33;;;;;;;8.70;6.38;;;;;;;;;;5074051;28;20032;-90
2021/12/25 09:47:59;;;;;;;13.38;9.55;;;;;;;;;;5074974;28;20036;-89
2021/12/25 09:50:25;;;;;;;25.25;11.05;;;;;;;;;;5070085;28;20020;-91
2021/12/25 09:52:51;;;;;;;22.85;11.57;;;;;;;;;;5055548;28;20033;-90
2021/12/25 09:55:18;;;;;;;21.02;12.02;;;;;;;;;;5074406;28;20040;-90
2021/12/25 09:57:46;;;;;;;23.40;13.43;;;;;;;;;;5058247;28;20545;-90
2021/12/25 10:00:18;;;;;;;27.40;12.52;;;;;;;;;;5060303;28;20044;-89
2021/12/25 10:02:53;;;;;;;21.13;11.93;;;14.70;80.50;;;;;;5053018;28;20130;-91
2021/12/25 10:05:27;;;;;;;24.50;12.13;;;15.00;80.70;;;;;;5073753;28;20109;-88
2021/12/25 10:08:07;;;;;;;44.40;26.52;;;14.70;93.50;;;;;;5071199;28;20036;-90
2021/12/25 10:10:43;;;;;;;25.38;13.55;;;15.10;80.60;;;;;;5073364;28;20025;-90
2021/12/25 10:13:19;;;;;;;13.38;7.30;;;15.30;93.20;;;;;;5052664;28;20028;-90
2021/12/25 10:15:45;;;;;;;4.97;3.13;;;;;;;;;;5054671;28;20158;-89
2021/12/25 10:18:11;;;;;;;4.30;2.40;;;;;;;;;;5036714;28;20112;-91
2021/12/25 10:20:37;;;;;;;2.35;1.40;;;;;;;;;;5055891;28;20029;-90
2021/12/25 10:23:21;;;;;;;2.72;1.70;;;15.50;81.00;;;;;;5069375;28;20016;-89
2021/12/25 10:25:52;;;;;;;2.28;1.80;;;15.30;79.70;;;;;;5055552;28;20036;-88
2021/12/25 10:28:40;;;;;;;2.85;1.58;;;14.80;80.90;;;;;;5073096;28;20040;-89
2021/12/25 10:31:13;;;;;;;4.65;1.85;;;14.50;82.90;;;;;;5074138;28;20020;-90
2021/12/25 10:33:44;;;;;;;3.67;1.75;;;14.50;83.70;;;;;;5057420;28;20020;-90
2021/12/25 10:36:28;;;;;;;3.92;1.63;;;14.40;83.70;;;;;;5073657;28;20035;-91
2021/12/25 10:39:03;;;;;;;4.10;1.85;;;;;;;;;;5055961;28;20100;-91
2021/12/25 10:41:29;;;;;;;3.10;1.60;;;;;;;;;;5045752;28;20025;-90
2021/12/25 10:44:15;;;;;;;4.13;2.15;;;14.60;84.80;;;;;;5068685;28;20031;-91
2021/12/25 10:47:06;;;;;;;5.03;2.55;;;14.20;96.20;;;;;;5054114;28;20501;-92
2021/12/25 10:49:43;;;;;;;3.90;2.78;;;;;;;;;;5055997;28;20024;-89
2021/12/25 10:52:22;;;;;;;4.03;2.17;;;;;;;;;;5051550;28;20520;-89
2021/12/25 10:54:50;;;;;;;12.32;5.18;;;;;;;;;;5057823;28;20029;-90
2021/12/25 10:57:38;;;;;;;15.43;6.07;;;13.20;89.80;;;;;;5073506;28;20029;-91
2021/12/25 11:00:13;;;;;;;15.70;7.28;;;;;;;;;;5053663;28;20490;-90
2021/12/25 11:02:49;;;;;;;19.38;8.25;;;12.90;91.10;;;;;;5065589;28;20020;-91
2021/12/25 11:05:21;;;;;;;6.80;4.45;;;12.90;91.30;;;;;;5056630;28;20047;-89
2021/12/25 11:07:48;;;;;;;9.15;2.38;;;;;;;;;;5053285;28;20032;-89
2021/12/25 11:10:19;;;;;;;6.78;1.75;;;12.90;90.30;;;;;;5073564;28;20048;-89
2021/12/25 11:12:45;;;;;;;3.90;1.33;;;;;;;;;;5055449;28;20489;-90
2021/12/25 11:15:17;;;;;;;1.60;0.90;;;;;;;;;;5057559;28;20517;-92
2021/12/25 11:17:49;;;;;;;1.90;1.20;;;;;;;;;;5062222;28;20024;-91
2021/12/25 11:20:22;;;;;;;3.08;1.13;;;;;;;;;;5055338;28;20089;-90
2021/12/25 11:22:53;;;;;;;4.03;1.50;;;12.80;90.00;;;;;;5072618;28;20025;-90
2021/12/25 11:25:23;;;;;;;4.97;1.98;;;12.60;89.60;;;;;;5068107;28;20044;-90
2021/12/25 11:27:50;;;;;;;2.00;1.30;;;;;;;;;;5072435;28;20061;-90
2021/12/25 11:30:20;;;;;;;1.08;0.75;;;12.70;90.30;;;;;;5073141;28;20516;-89
2021/12/25 11:32:46;;;;;;;0.70;0.70;;;;;;;;;;5073006;28;20025;-90
2021/12/25 11:35:15;;;;;;;1.40;1.17;;;;;;;;;;5072853;28;20049;-89
2021/12/25 11:37:41;;;;;;;0.63;0.63;;;;;;;;;;5071613;28;20032;-90
2021/12/25 11:40:09;;;;;;;4.63;1.42;;;12.90;90.20;;;;;;5068941;28;20146;-90
2021/12/25 11:42:40;;;;;;;3.47;2.22;;;13.00;91.00;;;;;;5054120;28;20124;-89
2021/12/25 11:45:33;;;;;;;7.10;3.00;;;13.00;88.80;;;;;;5053581;28;20016;-89
2021/12/25 11:48:10;;;;;;;3.15;1.70;;;13.20;87.40;;;;;;5059490;28;20537;-89
2021/12/25 11:50:41;;;;;;;2.83;1.42;;;13.60;87.60;;;;;;5054791;28;20034;-90
2021/12/25 11:53:23;;;;;;;2.45;1.95;;;;;;;;;;5069180;28;20032;-90
2021/12/25 11:58:51;;;;;;;1.15;0.82;;;13.80;96.20;;;;;;5072672;28;20016;-89
2021/12/25 12:01:38;;;;;;;2.60;1.17;;;14.00;84.90;;;;;;5072629;28;20028;-89
2021/12/25 12:04:25;;;;;;;0.98;0.80;;;14.10;84.20;;;;;;5054322;28;20039;-90
2021/12/25 12:06:53;;;;;;;;;;;14.10;85.40;;;;;;5041980;28;20045;-90
2021/12/25 12:09:26;;;;;;;0.98;0.80;;;14.20;83.70;;;;;;5063237;28;19912;-90
2021/12/25 12:12:10;;;;;;;0.73;0.73;;;;;;;;;;5073064;28;20024;-91
2021/12/25 12:14:36;;;;;;;1.30;1.20;;;;;;;;;;5072078;28;20424;-89
2021/12/25 12:17:04;;;;;;;1.02;0.93;;;;;;;;;;5040084;28;20033;-89
2021/12/25 12:19:37;;;;;;;1.23;1.02;;;;;;;;;;5044276;28;20025;-90
2021/12/25 12:22:18;;;;;;;1.95;1.38;;;14.50;83.30;;;;;;5065478;28;20033;-89
2021/12/25 12:25:13;;;;;;;6.13;1.65;;;14.30;83.50;;;;;;5059406;28;20136;-91
2021/12/25 12:27:51;;;;;;;1.15;0.93;;;14.40;83.50;;;;;;5053607;28;20041;-89
2021/12/25 12:30:37;;;;;;;2.60;1.15;;;;;;;;;;5062160;28;20059;-89
2021/12/25 12:33:17;;;;;;;1.02;0.80;;;14.00;82.90;;;;;;5072864;28;20021;-89
2021/12/25 12:35:48;;;;;;;0.95;0.95;;;13.90;83.30;;;;;;5070655;28;20068;-89
2021/12/25 12:38:27;;;;;;;2.88;1.27;;;;;;;;;;5054336;28;20032;-89
2021/12/25 12:41:25;;;;;;;1.40;0.80;;;13.80;82.00;;;;;;5068322;28;20050;-90
2021/12/25 12:43:56;;;;;;;0.80;0.80;;;;;;;;;;5063810;28;20030;-91
2021/12/25 12:46:48;;;;;;;2.65;1.38;;;13.60;82.60;;;;;;5050922;28;20033;-90
2021/12/25 12:49:36;;;;;;;5.22;1.73;;;13.50;82.50;;;;;;5042681;28;20033;-90
2021/12/25 12:52:14;;;;;;;1.33;1.23;;;;;;;;;;5070832;28;20024;-90
2021/12/25 12:54:53;;;;;;;1.70;0.70;;;;;;;;;;5050919;28;20048;-91
2021/12/25 12:57:38;;;;;;;1.80;1.50;;;13.20;82.10;;;;;;5074592;28;20501;-91
2021/12/25 13:00:27;;;;;;;1.42;0.95;;;13.20;84.00;;;;;;5076147;28;20028;-91
2021/12/25 13:02:54;;;;;;;0.75;0.75;;;;;;;;;;5052793;28;20033;-90
2021/12/25 13:05:23;;;;;;;1.00;0.98;;;;;;;;;;5057828;28;20028;-90
2021/12/25 13:07:53;;;;;;;1.10;1.00;;;;;;;;;;5063308;28;20071;-88
2021/12/25 13:10:26;;;;;;;1.77;0.88;;;13.20;83.10;;;;;;5056422;28;20104;-90
2021/12/25 13:12:57;;;;;;;1.13;0.70;;;;;;;;;;5072292;28;20103;-90
2021/12/25 13:15:27;;;;;;;1.05;0.95;;;13.00;81.70;;;;;;5056792;28;20115;-90
2021/12/25 13:18:02;;;;;;;1.88;0.90;;;13.00;81.90;;;;;;5076120;28;20109;-90
2021/12/25 13:20:42;;;;;;;0.77;0.75;;;;;;;;;;5052127;28;20029;-90
2021/12/25 13:23:10;;;;;;;2.40;0.90;;;;;;;;;;5059697;28;20025;-90
2021/12/25 13:25:51;;;;;;;2.60;1.85;;;12.80;87.70;;;;;;5065632;28;20033;-90
2021/12/25 13:28:17;;;;;;;3.97;2.30;;;;;;;;;;5067302;28;20090;-89
2021/12/25 13:30:47;;;;;;;3.85;2.25;;;12.60;91.00;;;;;;5041404;28;20060;-89
2021/12/25 13:33:16;;;;;;;4.93;3.50;;;12.50;91.30;;;;;;5072291;28;20037;-89
2021/12/25 13:35:43;;;;;;;5.78;2.80;;;;;;;;;;5074300;28;20025;-89
2021/12/25 13:38:09;;;;;;;4.28;2.80;;;;;;;;;;5057242;28;20016;-91
2021/12/25 13:40:37;;;;;;;5.07;3.25;;;12.30;92.30;;;;;;5072977;28;20048;-90
2021/12/25 13:43:09;;;;;;;3.22;2.45;;;12.20;92.50;;;;;;5060458;28;20375;-89
2021/12/25 13:45:37;;;;;;;9.90;4.22;;;12.20;92.70;;;;;;5072734;28;20043;-91
2021/12/25 13:48:05;;;;;;;7.70;4.32;;;12.20;92.90;;;;;;5063178;28;20032;-90
2021/12/25 13:50:32;;;;;;;6.70;3.78;;;12.10;93.00;;;;;;5046737;28;20094;-89
2021/12/25 13:52:59;;;;;;;6.90;3.03;;;;;;;;;;5050824;28;20444;-89
2021/12/25 13:55:30;;;;;;;7.47;3.47;;;11.90;93.20;;;;;;5075126;28;20040;-90
2021/12/25 13:57:59;;;;;;;10.90;3.95;;;;;;;;;;5073398;28;20123;-89
2021/12/25 14:00:51;;;;;;;5.70;3.45;;;11.70;93.60;;;;;;5074740;28;20058;-89
2021/12/25 14:03:23;;;;;;;8.38;3.20;;;11.70;93.50;;;;;;5057776;28;20028;-90
2021/12/25 14:05:50;;;;;;;5.55;3.33;;;;;;;;;;5056253;28;20211;-91
2021/12/25 14:08:19;;;;;;;7.53;3.53;;;;;;;;;;5063307;28;20036;-89
2021/12/25 14:10:45;;;;;;;7.68;3.85;;;;;;;;;;5063033;28;20108;-89
2021/12/25 14:13:32;;;;;;;5.88;3.90;;;11.50;94.20;;;;;;5040383;28;20016;-89
2021/12/25 14:15:59;;;;;;;8.10;3.65;;;;;;;;;;5070628;28;20047;-90
2021/12/25 14:18:30;;;;;;;9.05;3.92;;;;;;;;;;5056571;28;20033;-89
2021/12/25 14:21:11;;;;;;;7.22;4.25;;;;;;;;;;5074365;28;20020;-90
2021/12/25 14:23:37;;;;;;;9.48;4.55;;;;;;;;;;5060468;28;20044;-90
2021/12/25 14:26:03;;;;;;;12.07;5.15;;;;;;;;;;5073717;28;20028;-91
2021/12/25 14:28:30;;;;;;;8.05;4.65;;;;;;;;;;5047272;28;20036;-89
2021/12/25 14:31:04;;;;;;;9.52;5.43;;;11.20;95.40;;;;;;5072343;28;20025;-89
2021/12/25 14:33:33;;;;;;;10.63;4.63;;;11.20;95.50;;;;;;5073309;28;20114;-90
2021/12/25 14:35:59;;;;;;;10.40;5.50;;;;;;;;;;5056347;28;20032;-89
2021/12/25 14:38:25;;;;;;;9.77;5.60;;;;;;;;;;5074123;28;20028;-90
2021/12/25 14:40:52;;;;;;;11.55;5.82;;;11.20;95.60;;;;;;5072851;28;20502;-91
2021/12/25 14:43:29;;;;;;;8.07;5.07;;;11.10;95.50;;;;;;5056484;28;20032;-90
2021/12/25 14:45:55;;;;;;;17.17;5.43;;;;;;;;;;5068806;28;20039;-90
2021/12/25 14:48:28;;;;;;;8.88;4.60;;;;;;;;;;5054750;28;20059;-89
2021/12/25 14:51:03;;;;;;;6.55;3.83;;;11.10;95.80;;;;;;5073438;28;20036;-90
2021/12/25 14:53:29;;;;;;;12.98;5.15;;;;;;;;;;5057879;28;20108;-91
2021/12/25 14:56:01;;;;;;;10.38;4.30;;;;;;;;;;5073746;28;20060;-89
2021/12/25 14:58:35;;;;;;;9.57;4.45;;;;;;;;;;5073552;28;20130;-90
2021/12/25 15:01:19;;;;;;;9.80;4.95;;;11.10;95.70;;;;;;5069632;28;20060;-90
2021/12/25 15:03:46;;;;;;;10.27;4.07;;;;;;;;;;5052231;28;20037;-90
2021/12/25 15:06:19;;;;;;;;;;;11.00;95.80;;;;;;5068650;28;20036;-90
2021/12/25 15:08:45;;;;;;;9.40;6.13;;;;;;;;;;5035773;28;20270;-90
2021/12/25 15:11:14;;;;;;;14.02;6.28;;;10.90;96.40;;;;;;5047726;28;20029;-91
2021/12/25 15:13:43;;;;;;;9.18;5.97;;;10.90;96.50;;;;;;5064349;28;20028;-90
2021/12/25 15:16:10;;;;;;;17.08;7.95;;;;;;;;;;5054325;28;20431;-90
2021/12/25 15:18:41;;;;;;;18.92;8.07;;;10.90;96.70;;;;;;5073701;28;20057;-89
2021/12/25 15:21:20;;;;;;;13.15;5.40;;;;;;;;;;5054294;28;20497;-89
2021/12/25 15:23:49;;;;;;;11.52;7.30;;;10.90;96.80;;;;;;5063682;28;20079;-90
2021/12/25 15:26:18;;;;;;;13.88;7.60;;;10.80;96.80;;;;;;5072578;28;20517;-91
2021/12/25 15:29:06;;;;;;;12.10;6.68;;;10.80;96.90;;;;;;5054963;28;20032;-90
2021/12/25 15:31:32;;;;;;;11.30;6.93;;;;;;;;;;5071774;28;20024;-90
2021/12/25 15:34:02;;;;;;;15.93;6.30;;;10.70;97.10;;;;;;5068140;28;20485;-89
2021/12/25 15:36:29;;;;;;;14.73;5.82;;;10.70;97.10;;;;;;5047334;28;20024;-89
2021/12/25 15:38:56;;;;;;;12.93;6.75;;;;;;;;;;5073350;28;20024;-91
2021/12/25 15:41:22;;;;;;;11.40;6.10;;;;;;;;;;5069371;28;20024;-91
2021/12/25 15:43:49;;;;;;;16.25;6.47;;;10.60;97.30;;;;;;5072831;28;20025;-90
2021/12/25 15:46:16;;;;;;;19.00;7.22;;;10.60;97.20;;;;;;5054857;28;20032;-92
2021/12/25 15:48:42;;;;;;;14.90;7.50;;;;;;;;;;5073500;28;20028;-89